createdAt,value
2018-09-12T00:00:39.195Z,5.93
2018-09-12T00:03:07.822Z,6.83
2018-09-12T00:05:36.350Z,5.00
2018-09-12T00:08:05.973Z,5.90
2018-09-12T00:10:34.451Z,6.60
2018-09-12T00:13:03.738Z,4.10
2018-09-12T00:15:33.033Z,3.77
2018-09-12T00:18:01.578Z,5.80
2018-09-12T00:20:30.194Z,4.83
2018-09-12T00:22:59.253Z,4.87
2018-09-12T00:25:28.489Z,4.77
2018-09-12T00:27:56.949Z,7.77
2018-09-12T00:30:26.036Z,6.77
2018-09-12T00:32:54.773Z,4.50
2018-09-12T00:35:23.319Z,5.03
2018-09-12T00:37:52.134Z,5.30
2018-09-12T00:40:20.698Z,5.80
2018-09-12T00:42:49.200Z,5.83
2018-09-12T00:45:17.769Z,7.03
2018-09-12T00:47:46.263Z,5.13
2018-09-12T00:50:14.902Z,6.40
2018-09-12T00:52:43.368Z,4.23
2018-09-12T00:55:12.110Z,6.10
2018-09-12T00:57:40.679Z,4.40
2018-09-12T01:00:09.214Z,3.90
2018-09-12T01:02:37.852Z,4.10
2018-09-12T01:05:06.478Z,4.63
2018-09-12T01:07:35.000Z,3.93
2018-09-12T01:10:03.540Z,4.57
2018-09-12T01:12:32.082Z,6.83
2018-09-12T01:15:00.552Z,5.63
2018-09-12T01:17:29.184Z,5.10
2018-09-12T01:19:57.646Z,4.30
2018-09-12T01:22:26.275Z,4.87
2018-09-12T01:24:54.746Z,6.70
2018-09-12T01:27:23.371Z,7.07
2018-09-12T01:29:51.919Z,5.47
2018-09-12T01:32:20.361Z,6.07
2018-09-12T01:34:49.486Z,6.17
2018-09-12T01:37:17.970Z,6.63
2018-09-12T01:39:46.653Z,7.10
2018-09-12T01:42:15.154Z,6.90
2018-09-12T01:44:43.724Z,4.20
2018-09-12T01:47:12.186Z,4.87
2018-09-12T01:49:40.846Z,4.27
2018-09-12T01:52:09.448Z,7.17
2018-09-12T01:54:38.079Z,4.73
2018-09-12T01:57:06.466Z,5.63
2018-09-12T01:59:34.980Z,4.97
2018-09-12T02:02:03.612Z,6.23
2018-09-12T02:04:32.081Z,5.87
2018-09-12T02:07:00.743Z,4.20
2018-09-12T02:09:29.265Z,6.47
2018-09-12T02:11:57.856Z,4.27
2018-09-12T02:14:26.494Z,5.93
2018-09-12T02:16:55.123Z,6.73
2018-09-12T02:19:24.847Z,5.30
2018-09-12T02:21:53.914Z,7.00
2018-09-12T02:24:22.449Z,8.17
2018-09-12T02:26:51.154Z,7.23
2018-09-12T02:29:20.875Z,5.70
2018-09-12T02:31:49.397Z,7.07
2018-09-12T02:34:18.001Z,6.23
2018-09-12T02:36:46.531Z,6.40
2018-09-12T02:39:15.024Z,6.67
2018-09-12T02:41:43.688Z,6.90
2018-09-12T02:44:12.246Z,6.50
2018-09-12T02:46:41.326Z,6.43
2018-09-12T02:49:10.558Z,6.37
2018-09-12T02:51:39.131Z,5.47
2018-09-12T02:54:07.716Z,5.13
2018-09-12T02:56:37.179Z,4.67
2018-09-12T02:59:05.677Z,5.20
2018-09-12T03:01:34.225Z,6.93
2018-09-12T03:04:03.624Z,6.10
2018-09-12T03:06:32.307Z,7.07
2018-09-12T03:09:00.865Z,6.40
2018-09-12T03:11:29.875Z,6.70
2018-09-12T03:13:58.358Z,6.53
2018-09-12T03:16:26.845Z,4.77
2018-09-12T03:18:55.434Z,6.40
2018-09-12T03:21:23.958Z,6.67
2018-09-12T03:23:52.591Z,5.53
2018-09-12T03:26:21.285Z,6.60
2018-09-12T03:28:50.257Z,4.63
2018-09-12T03:31:18.922Z,5.83
2018-09-12T03:33:47.550Z,4.93
2018-09-12T03:36:16.205Z,5.70
2018-09-12T03:38:44.681Z,4.53
2018-09-12T03:41:13.203Z,7.33
2018-09-12T03:43:41.749Z,4.93
2018-09-12T03:46:10.337Z,5.10
2018-09-12T03:48:38.876Z,6.30
2018-09-12T03:51:07.482Z,5.30
2018-09-12T03:53:36.360Z,4.07
2018-09-12T03:56:04.870Z,6.70
2018-09-12T03:58:33.388Z,6.03
2018-09-12T04:01:02.579Z,5.00
2018-09-12T04:03:31.354Z,5.10
2018-09-12T04:05:59.958Z,4.70
2018-09-12T04:08:28.487Z,4.47
2018-09-12T04:10:57.065Z,4.03
2018-09-12T04:13:25.600Z,5.40
2018-09-12T04:15:54.127Z,6.00
2018-09-12T04:18:22.718Z,6.23
2018-09-12T04:20:51.193Z,5.23
2018-09-12T04:23:19.880Z,4.90
2018-09-12T04:25:48.481Z,4.47
2018-09-12T04:28:17.139Z,5.20
2018-09-12T04:30:45.759Z,7.40
2018-09-12T04:33:14.406Z,6.03
2018-09-12T04:35:43.057Z,4.37
2018-09-12T04:38:11.913Z,5.03
2018-09-12T04:40:40.628Z,3.87
2018-09-12T04:43:09.252Z,5.33
2018-09-12T04:45:37.752Z,4.40
2018-09-12T04:48:06.397Z,5.07
2018-09-12T04:50:34.887Z,8.23
2018-09-12T04:53:03.612Z,8.83
2018-09-12T04:55:32.076Z,6.70
2018-09-12T04:58:07.272Z,5.30
2018-09-12T05:00:35.753Z,7.97
2018-09-12T05:03:04.213Z,5.73
2018-09-12T05:05:33.609Z,5.27
2018-09-12T05:08:02.168Z,5.20
2018-09-12T05:10:30.735Z,6.80
2018-09-12T05:12:59.237Z,6.87
2018-09-12T05:15:28.091Z,7.23
2018-09-12T05:17:56.623Z,5.20
2018-09-12T05:20:25.104Z,4.00
2018-09-12T05:22:53.821Z,5.20
2018-09-12T05:25:22.546Z,5.97
2018-09-12T05:27:51.097Z,4.67
2018-09-12T05:30:19.793Z,8.60
2018-09-12T05:32:49.292Z,5.40
2018-09-12T05:35:17.784Z,5.33
2018-09-12T05:37:46.357Z,8.23
2018-09-12T05:40:14.854Z,7.53
2018-09-12T05:42:44.364Z,8.53
2018-09-12T05:45:12.844Z,5.47
2018-09-12T05:47:41.443Z,4.83
2018-09-12T05:50:10.082Z,8.20
2018-09-12T05:52:38.541Z,6.17
2018-09-12T05:55:07.095Z,7.70
2018-09-12T05:57:35.898Z,8.37
2018-09-12T06:00:04.872Z,8.23
2018-09-12T06:02:33.318Z,6.10
2018-09-12T06:05:02.355Z,6.57
2018-09-12T06:07:30.849Z,7.33
2018-09-12T06:10:00.494Z,7.10
2018-09-12T06:12:29.230Z,4.63
2018-09-12T06:14:57.783Z,7.00
2018-09-12T06:17:26.809Z,6.47
2018-09-12T06:19:55.260Z,7.60
2018-09-12T06:22:24.473Z,6.50
2018-09-12T06:24:53.633Z,7.20
2018-09-12T06:27:22.212Z,7.93
2018-09-12T06:29:50.768Z,8.13
2018-09-12T06:32:19.237Z,7.60
2018-09-12T06:34:48.007Z,8.23
2018-09-12T06:37:16.545Z,7.97
2018-09-12T06:39:45.696Z,7.53
2018-09-12T06:42:14.214Z,7.53
2018-09-12T06:44:42.723Z,8.30
2018-09-12T06:47:11.352Z,6.93
2018-09-12T06:49:40.438Z,8.40
2018-09-12T06:52:09.029Z,7.43
2018-09-12T06:54:37.639Z,8.43
2018-09-12T06:57:06.241Z,7.03
2018-09-12T06:59:34.810Z,9.07
2018-09-12T07:02:03.427Z,8.20
2018-09-12T07:04:32.010Z,6.77
2018-09-12T07:07:00.766Z,7.70
2018-09-12T07:09:29.272Z,7.03
2018-09-12T07:11:57.908Z,8.57
2018-09-12T07:14:26.404Z,6.87
2018-09-12T07:16:55.048Z,7.20
2018-09-12T07:19:23.891Z,7.57
2018-09-12T07:21:53.252Z,6.20
2018-09-12T07:24:21.932Z,6.50
2018-09-12T07:26:50.445Z,8.53
2018-09-12T07:29:19.122Z,7.37
2018-09-12T07:31:48.617Z,7.17
2018-09-12T07:34:17.369Z,7.30
2018-09-12T07:36:46.309Z,8.00
2018-09-12T07:39:15.125Z,8.43
2018-09-12T07:41:44.257Z,6.30
2018-09-12T07:44:13.588Z,6.80
2018-09-12T07:46:42.152Z,8.00
2018-09-12T07:49:10.933Z,6.80
2018-09-12T07:51:40.043Z,8.20
2018-09-12T07:54:09.252Z,7.47
2018-09-12T07:56:37.968Z,6.13
2018-09-12T07:59:06.568Z,7.77
2018-09-12T08:01:35.716Z,7.00
2018-09-12T08:04:04.837Z,7.20
2018-09-12T08:06:34.319Z,7.33
2018-09-12T08:09:03.080Z,6.57
2018-09-12T08:11:32.773Z,7.80
2018-09-12T08:14:02.117Z,7.40
2018-09-12T08:16:31.145Z,7.07
2018-09-12T08:18:59.975Z,5.33
2018-09-12T08:21:28.455Z,6.50
2018-09-12T08:23:57.330Z,5.10
2018-09-12T08:26:25.982Z,6.87
2018-09-12T08:28:54.546Z,5.50
2018-09-12T08:31:23.151Z,6.25
2018-09-12T08:33:52.674Z,6.60
2018-09-12T08:36:21.272Z,7.12
2018-09-12T08:38:50.039Z,5.25
2018-09-12T08:41:18.724Z,6.20
2018-09-12T08:43:48.006Z,5.55
2018-09-12T08:46:16.946Z,5.80
2018-09-12T08:48:45.630Z,6.65
2018-09-12T08:51:14.385Z,5.72
2018-09-12T08:53:43.005Z,5.92
2018-09-12T08:56:11.741Z,5.33
2018-09-12T08:58:40.462Z,5.25
2018-09-12T09:01:09.354Z,6.72
2018-09-12T09:03:38.003Z,5.35
2018-09-12T09:06:07.648Z,6.00
2018-09-12T09:08:36.522Z,6.28
2018-09-12T09:11:06.162Z,6.25
2018-09-12T09:13:35.028Z,6.40
2018-09-12T09:16:03.601Z,5.17
2018-09-12T09:18:33.189Z,5.30
2018-09-12T09:21:01.990Z,6.10
2018-09-12T09:23:30.811Z,4.42
2018-09-12T09:26:00.435Z,5.28
2018-09-12T09:28:29.095Z,4.97
2018-09-12T09:30:58.545Z,6.28
2018-09-12T09:33:27.236Z,5.72
2018-09-12T09:35:56.657Z,5.60
2018-09-12T09:38:25.221Z,5.25
2018-09-12T09:40:53.843Z,5.53
2018-09-12T09:43:22.610Z,6.05
2018-09-12T09:45:51.609Z,4.85
2018-09-12T09:48:20.480Z,6.10
2018-09-12T09:50:49.025Z,5.80
2018-09-12T09:53:17.626Z,4.75
2018-09-12T09:55:46.198Z,5.17
2018-09-12T09:58:15.129Z,4.65
2018-09-12T10:00:48.947Z,4.67
2018-09-12T10:03:22.877Z,4.78
2018-09-12T10:05:56.937Z,5.15
2018-09-12T10:11:48.050Z,5.40
2018-09-12T10:14:16.782Z,4.50
2018-09-12T10:16:45.470Z,4.85
2018-09-12T10:19:14.852Z,3.65
2018-09-12T10:21:43.397Z,5.30
2018-09-12T10:24:12.755Z,4.42
2018-09-12T10:26:41.677Z,3.80
2018-09-12T10:29:10.292Z,4.42
2018-09-12T10:31:39.421Z,5.00
2018-09-12T10:34:09.514Z,4.80
2018-09-12T10:36:38.430Z,5.65
2018-09-12T10:39:10.660Z,4.15
2018-09-12T10:41:39.293Z,4.42
2018-09-12T10:44:08.135Z,4.30
2018-09-12T10:46:37.032Z,4.25
2018-09-12T10:49:06.717Z,4.40
2018-09-12T10:51:35.389Z,4.25
2018-09-12T10:54:04.248Z,4.67
2018-09-12T10:56:33.869Z,5.28
2018-09-12T10:59:02.978Z,4.25
2018-09-12T11:01:31.545Z,3.35
2018-09-12T11:04:00.438Z,4.37
2018-09-12T11:06:29.143Z,4.25
2018-09-12T11:08:58.213Z,4.87
2018-09-12T11:11:26.814Z,4.35
2018-09-12T11:13:57.064Z,4.45
2018-09-12T11:16:25.624Z,4.30
2018-09-12T11:18:54.603Z,4.25
2018-09-12T11:21:24.010Z,4.92
2018-09-12T11:23:53.240Z,4.55
2018-09-12T11:26:22.603Z,3.50
2018-09-12T11:28:51.574Z,4.00
2018-09-12T11:31:20.198Z,4.45
2018-09-12T11:33:48.772Z,3.37
2018-09-12T11:36:17.879Z,2.90
2018-09-12T11:38:47.032Z,3.80
2018-09-12T11:41:16.228Z,3.83
2018-09-12T11:43:45.646Z,3.20
2018-09-12T11:46:14.219Z,3.72
2018-09-12T11:48:42.825Z,3.87
2018-09-12T11:51:11.646Z,3.83
2018-09-12T11:53:40.201Z,3.60
2018-09-12T11:56:09.798Z,3.35
2018-09-12T11:58:40.627Z,3.35
2018-09-12T12:01:09.830Z,2.90
2018-09-12T12:03:39.045Z,3.02
2018-09-12T12:06:07.812Z,3.90
2018-09-12T12:08:36.561Z,4.42
2018-09-12T12:11:11.848Z,3.47
2018-09-12T12:13:41.360Z,3.15
2018-09-12T12:16:10.577Z,3.42
2018-09-12T12:18:39.501Z,2.85
2018-09-12T12:21:08.035Z,3.50
2018-09-12T12:23:37.556Z,3.27
2018-09-12T12:26:06.644Z,3.30
2018-09-12T12:28:35.749Z,3.22
2018-09-12T12:31:04.265Z,2.98
2018-09-12T12:33:33.185Z,2.80
2018-09-12T12:36:27.391Z,3.33
2018-09-12T12:41:45.846Z,3.02
2018-09-12T12:44:17.720Z,3.20
2018-09-12T12:46:51.100Z,2.90
2018-09-12T12:49:19.858Z,4.12
2018-09-12T12:51:48.620Z,3.52
2018-09-12T12:54:17.678Z,3.30
2018-09-12T12:56:46.114Z,3.22
2018-09-12T12:59:15.413Z,3.40
2018-09-12T13:01:44.486Z,2.52
2018-09-12T13:04:13.553Z,3.15
2018-09-12T13:06:42.135Z,3.25
2018-09-12T13:09:10.846Z,3.58
2018-09-12T13:11:39.590Z,3.10
2018-09-12T13:14:09.087Z,3.52
2018-09-12T13:16:38.204Z,3.30
2018-09-12T13:19:07.129Z,3.20
2018-09-12T13:21:35.997Z,2.55
2018-09-12T13:24:05.306Z,3.58
2018-09-12T13:26:34.647Z,3.27
2018-09-12T13:29:03.481Z,3.30
2018-09-12T13:31:32.257Z,3.60
2018-09-12T13:34:01.088Z,3.17
2018-09-12T13:36:29.752Z,3.45
2018-09-12T13:38:58.552Z,2.60
2018-09-12T13:41:27.182Z,3.50
2018-09-12T13:43:55.989Z,2.85
2018-09-12T13:46:24.751Z,3.22
2018-09-12T13:48:54.154Z,3.10
2018-09-12T13:51:23.555Z,2.52
2018-09-12T13:53:52.002Z,3.42
2018-09-12T13:56:20.522Z,3.17
2018-09-12T13:58:49.181Z,3.47
2018-09-12T14:01:17.685Z,2.85
2018-09-12T14:03:46.661Z,3.60
2018-09-12T14:06:15.336Z,3.05
2018-09-12T14:08:44.836Z,2.95
2018-09-12T14:11:13.830Z,2.83
2018-09-12T14:13:42.771Z,3.00
2018-09-12T14:16:11.348Z,2.98
2018-09-12T14:18:40.140Z,2.62
2018-09-12T14:21:09.046Z,2.72
2018-09-12T14:23:38.183Z,3.05
2018-09-12T14:26:06.855Z,2.80
2018-09-12T14:28:36.242Z,2.70
2018-09-12T14:31:05.051Z,3.10
2018-09-12T14:33:33.733Z,2.85
2018-09-12T14:36:02.288Z,3.10
2018-09-12T14:38:31.232Z,3.20
2018-09-12T14:41:00.591Z,3.52
2018-09-12T14:43:30.861Z,2.62
2018-09-12T14:45:59.468Z,2.85
2018-09-12T14:48:28.790Z,2.92
2018-09-12T14:50:57.706Z,2.70
2018-09-12T14:53:26.545Z,3.35
2018-09-12T14:55:55.293Z,4.87
2018-09-12T14:58:24.669Z,4.45
2018-09-12T15:00:54.193Z,3.02
2018-09-12T15:03:23.196Z,3.62
2018-09-12T15:05:52.508Z,2.60
2018-09-12T15:08:22.133Z,2.47
2018-09-12T15:10:51.484Z,3.62
2018-09-12T15:13:20.411Z,3.27
2018-09-12T15:15:49.018Z,2.90
2018-09-12T15:18:17.546Z,3.02
2018-09-12T15:20:46.317Z,3.42
2018-09-12T15:23:14.811Z,3.50
2018-09-12T15:25:43.964Z,3.33
2018-09-12T15:28:12.941Z,3.80
2018-09-12T15:30:41.605Z,3.40
2018-09-12T15:33:13.941Z,3.72
2018-09-12T15:35:43.026Z,2.75
2018-09-12T15:38:11.712Z,2.72
2018-09-12T15:40:40.451Z,3.17
2018-09-12T15:43:09.072Z,3.77
2018-09-12T15:45:38.221Z,3.00
2018-09-12T15:48:07.765Z,4.10
2018-09-12T15:50:36.629Z,3.17
2018-09-12T15:53:06.470Z,4.17
2018-09-12T15:55:35.525Z,3.12
2018-09-12T15:58:04.657Z,3.25
2018-09-12T16:00:33.181Z,2.83
2018-09-12T16:03:01.797Z,3.85
2018-09-12T16:05:30.952Z,3.42
2018-09-12T16:07:59.669Z,3.60
2018-09-12T16:10:28.320Z,3.60
2018-09-12T16:12:56.941Z,3.92
2018-09-12T16:15:25.430Z,3.00
2018-09-12T16:17:54.236Z,3.87
2018-09-12T16:20:22.733Z,4.35
2018-09-12T16:22:51.224Z,3.22
2018-09-12T16:25:19.757Z,3.40
2018-09-12T16:27:48.932Z,2.85
2018-09-12T16:30:17.862Z,4.40
2018-09-12T16:33:01.646Z,4.08
2018-09-12T16:35:31.256Z,3.45
2018-09-12T16:38:00.610Z,3.92
2018-09-12T16:40:29.408Z,4.20
2018-09-12T16:42:58.909Z,3.15
2018-09-12T16:45:27.686Z,3.70
2018-09-12T16:47:57.627Z,3.67
2018-09-12T16:50:26.838Z,3.85
2018-09-12T16:53:04.397Z,4.10
2018-09-12T16:55:33.263Z,4.15
2018-09-12T16:58:05.034Z,3.10
2018-09-12T17:00:37.949Z,2.72
2018-09-12T17:03:07.275Z,3.58
2018-09-12T17:05:36.285Z,2.85
2018-09-12T17:08:05.789Z,3.77
2018-09-12T17:10:36.766Z,3.80
2018-09-12T17:13:05.986Z,2.90
2018-09-12T17:15:35.596Z,4.25
2018-09-12T17:18:05.128Z,3.42
2018-09-12T17:20:34.542Z,4.55
2018-09-12T17:23:06.240Z,3.58
2018-09-12T17:25:45.658Z,4.50
2018-09-12T17:28:21.219Z,4.17
2018-09-12T17:31:00.174Z,3.83
2018-09-12T17:33:30.614Z,3.20
2018-09-12T17:36:06.741Z,4.55
2018-09-12T17:38:35.507Z,3.87
2018-09-12T17:41:04.132Z,3.85
2018-09-12T17:43:32.993Z,3.20
2018-09-12T17:46:01.510Z,3.40
2018-09-12T17:48:31.133Z,4.65
2018-09-12T17:51:06.529Z,3.65
2018-09-12T17:53:35.761Z,4.62
2018-09-12T17:56:05.093Z,4.20
2018-09-12T17:58:34.809Z,3.85
2018-09-12T18:01:03.877Z,4.83
2018-09-12T18:03:32.944Z,5.37
2018-09-12T18:06:02.187Z,3.40
2018-09-12T18:08:30.773Z,4.30
2018-09-12T18:10:59.324Z,4.78
2018-09-12T18:13:27.844Z,5.53
2018-09-12T18:16:01.176Z,4.42
2018-09-12T18:18:30.419Z,4.95
2018-09-12T18:20:58.954Z,6.30
2018-09-12T18:23:47.541Z,4.53
2018-09-12T18:26:16.593Z,5.80
2018-09-12T18:28:45.388Z,6.80
2018-09-12T18:31:14.740Z,5.05
2018-09-12T18:33:44.211Z,4.90
2018-09-12T18:36:12.882Z,5.58
2018-09-12T18:38:41.677Z,5.10
2018-09-12T18:41:13.240Z,4.28
2018-09-12T18:43:42.438Z,3.00
2018-09-12T18:46:11.042Z,4.40
2018-09-12T18:48:40.174Z,3.70
2018-09-12T18:51:11.017Z,4.08
2018-09-12T18:53:40.423Z,3.92
2018-09-12T18:56:09.460Z,3.67
2018-09-12T18:58:38.161Z,3.25
2018-09-12T19:01:07.291Z,3.87
2018-09-12T19:03:35.784Z,3.15
2018-09-12T19:06:04.494Z,4.00
2018-09-12T19:08:33.090Z,4.17
2018-09-12T19:11:02.141Z,4.05
2018-09-12T19:13:30.936Z,3.17
2018-09-12T19:16:00.356Z,3.40
2018-09-12T19:18:29.496Z,3.20
2018-09-12T19:20:58.289Z,5.05
2018-09-12T19:23:26.984Z,3.75
2018-09-12T19:25:55.797Z,3.40
2018-09-12T19:28:24.562Z,4.95
2018-09-12T19:30:54.190Z,4.60
2018-09-12T19:33:23.094Z,5.65
2018-09-12T19:35:51.668Z,4.03
2018-09-12T19:38:20.409Z,3.60
2018-09-12T19:40:49.097Z,3.77
2018-09-12T19:43:17.626Z,4.58
2018-09-12T19:45:46.581Z,5.92
2018-09-12T19:48:15.851Z,4.00
2018-09-12T19:50:44.380Z,4.20
2018-09-12T19:53:13.962Z,4.20
2018-09-12T19:55:42.687Z,8.20
2018-09-12T19:58:12.152Z,7.33
2018-09-12T20:00:41.697Z,6.33
2018-09-12T20:03:10.807Z,5.83
2018-09-12T20:05:40.020Z,6.28
2018-09-12T20:08:08.665Z,4.33
2018-09-12T20:10:37.575Z,3.50
2018-09-12T20:13:06.482Z,3.58
2018-09-12T20:15:36.198Z,3.65
2018-09-12T20:18:04.830Z,4.40
2018-09-12T20:20:33.770Z,5.78
2018-09-12T20:23:02.705Z,7.25
2018-09-12T20:25:31.436Z,7.72
2018-09-12T20:28:00.075Z,5.97
2018-09-12T20:30:28.679Z,5.55
2018-09-12T20:32:57.352Z,5.53
2018-09-12T20:35:26.208Z,5.40
2018-09-12T20:37:55.494Z,4.20
2018-09-12T20:40:25.120Z,5.22
2018-09-12T20:42:53.728Z,4.92
2018-09-12T20:45:22.441Z,4.83
2018-09-12T20:47:51.755Z,5.40
2018-09-12T20:50:21.494Z,5.05
2018-09-12T20:52:50.257Z,6.22
2018-09-12T20:55:19.546Z,5.03
2018-09-12T20:57:49.127Z,4.55
2018-09-12T21:00:17.758Z,5.05
2018-09-12T21:02:46.570Z,4.33
2018-09-12T21:05:15.290Z,5.28
2018-09-12T21:13:31.395Z,3.72
2018-09-12T21:16:01.041Z,4.75
2018-09-12T21:18:34.014Z,5.23
2018-09-12T21:21:03.068Z,3.60
2018-09-12T21:23:31.647Z,4.07
2018-09-12T21:26:00.211Z,3.33
2018-09-12T21:28:35.882Z,4.57
2018-09-12T21:31:05.128Z,4.60
2018-09-12T21:33:33.731Z,4.60
2018-09-12T21:36:02.662Z,3.37
2018-09-12T21:38:32.219Z,4.97
2018-09-12T21:41:00.989Z,4.23
2018-09-12T21:43:29.808Z,5.90
2018-09-12T21:45:58.666Z,6.77
2018-09-12T21:48:27.283Z,5.27
2018-09-12T21:50:55.842Z,4.23
2018-09-12T21:53:24.459Z,5.20
2018-09-12T21:55:53.216Z,5.83
2018-09-12T21:58:21.842Z,8.23
2018-09-12T22:00:51.128Z,7.30
2018-09-12T22:03:19.990Z,6.70
2018-09-12T22:05:48.702Z,8.43
2018-09-12T22:08:17.627Z,5.10
2018-09-12T22:10:46.301Z,7.10
2018-09-12T22:13:15.487Z,6.37
2018-09-12T22:15:44.632Z,4.43
2018-09-12T22:18:13.864Z,4.87
2018-09-12T22:20:42.868Z,7.03
2018-09-12T22:23:12.250Z,6.50
2018-09-12T22:25:41.046Z,5.60
2018-09-12T22:28:10.168Z,6.27
2018-09-12T22:30:43.856Z,5.90
2018-09-12T22:33:12.578Z,5.30
2018-09-12T22:35:41.834Z,5.63
2018-09-12T22:38:10.759Z,7.07
2018-09-12T22:40:41.124Z,5.63
2018-09-12T22:43:10.743Z,8.40
2018-09-12T22:45:39.814Z,5.37
2018-09-12T22:48:08.976Z,7.27
2018-09-12T22:50:37.874Z,6.10
2018-09-12T22:53:07.000Z,4.40
2018-09-12T22:55:40.373Z,4.33
2018-09-12T22:58:09.574Z,4.10
2018-09-12T23:00:38.730Z,5.67
2018-09-12T23:03:07.743Z,4.70
2018-09-12T23:05:36.721Z,3.60
2018-09-12T23:08:05.717Z,5.40
2018-09-12T23:10:34.214Z,4.93
2018-09-12T23:13:04.026Z,3.70
2018-09-12T23:15:33.590Z,4.13
2018-09-12T23:18:02.898Z,6.50
2018-09-12T23:20:32.507Z,5.07
2018-09-12T23:23:01.600Z,8.80
2018-09-12T23:25:30.929Z,5.23
2018-09-12T23:27:59.857Z,4.73
2018-09-12T23:30:29.647Z,5.10
2018-09-12T23:32:59.355Z,9.97
2018-09-12T23:35:28.985Z,6.83
2018-09-12T23:37:57.967Z,6.37
2018-09-12T23:40:27.243Z,4.80
2018-09-12T23:42:55.965Z,4.10
2018-09-12T23:45:24.813Z,5.63
2018-09-12T23:47:53.729Z,6.50
2018-09-12T23:50:22.844Z,4.03
2018-09-12T23:52:51.307Z,5.20
2018-09-12T23:55:20.639Z,3.83
2018-09-12T23:57:49.512Z,6.07
